sensor_id;sensor_type;location;lat;lon;timestamp;temperature;humidity
15105;DHT22;7653;48.994;9.212;2023-05-07T00:02:21;13.00;72.10
15105;DHT22;7653;48.994;9.212;2023-05-07T00:04:48;12.90;72.20
15105;DHT22;7653;48.994;9.212;2023-05-07T00:07:14;13.10;72.50
15105;DHT22;7653;48.994;9.212;2023-05-07T00:09:40;13.20;72.50
15105;DHT22;7653;48.994;9.212;2023-05-07T00:12:06;13.30;70.60
15105;DHT22;7653;48.994;9.212;2023-05-07T00:14:31;13.10;71.20
15105;DHT22;7653;48.994;9.212;2023-05-07T00:16:57;13.00;72.30
15105;DHT22;7653;48.994;9.212;2023-05-07T00:19:23;12.90;72.60
15105;DHT22;7653;48.994;9.212;2023-05-07T00:21:49;12.80;74.00
15105;DHT22;7653;48.994;9.212;2023-05-07T00:24:14;12.70;74.80
15105;DHT22;7653;48.994;9.212;2023-05-07T00:26:40;12.70;75.90
15105;DHT22;7653;48.994;9.212;2023-05-07T00:29:05;12.70;76.40
15105;DHT22;7653;48.994;9.212;2023-05-07T00:31:31;12.70;76.30
15105;DHT22;7653;48.994;9.212;2023-05-07T00:33:56;12.60;76.80
15105;DHT22;7653;48.994;9.212;2023-05-07T00:36:22;12.60;77.60
15105;DHT22;7653;48.994;9.212;2023-05-07T00:38:48;12.60;77.60
15105;DHT22;7653;48.994;9.212;2023-05-07T00:41:15;12.60;77.10
15105;DHT22;7653;48.994;9.212;2023-05-07T00:43:40;12.60;78.30
15105;DHT22;7653;48.994;9.212;2023-05-07T00:46:06;12.70;77.60
15105;DHT22;7653;48.994;9.212;2023-05-07T00:48:32;12.60;77.00
15105;DHT22;7653;48.994;9.212;2023-05-07T00:50:57;12.50;78.60
15105;DHT22;7653;48.994;9.212;2023-05-07T00:53:23;12.50;79.40
15105;DHT22;7653;48.994;9.212;2023-05-07T00:55:49;12.40;78.90
15105;DHT22;7653;48.994;9.212;2023-05-07T00:58:16;12.40;80.50
15105;DHT22;7653;48.994;9.212;2023-05-07T01:00:41;12.40;78.50
15105;DHT22;7653;48.994;9.212;2023-05-07T01:03:07;12.30;79.90
15105;DHT22;7653;48.994;9.212;2023-05-07T01:05:33;12.20;80.90
15105;DHT22;7653;48.994;9.212;2023-05-07T01:07:59;12.20;80.90
15105;DHT22;7653;48.994;9.212;2023-05-07T01:10:25;12.20;80.90
15105;DHT22;7653;48.994;9.212;2023-05-07T01:12:51;12.10;80.80
15105;DHT22;7653;48.994;9.212;2023-05-07T01:15:17;12.00;82.70
15105;DHT22;7653;48.994;9.212;2023-05-07T01:17:44;12.10;82.90
15105;DHT22;7653;48.994;9.212;2023-05-07T01:20:10;12.20;82.20
15105;DHT22;7653;48.994;9.212;2023-05-07T01:22:37;12.20;80.90
15105;DHT22;7653;48.994;9.212;2023-05-07T01:25:04;12.20;79.70
15105;DHT22;7653;48.994;9.212;2023-05-07T01:27:30;12.00;80.80
15105;DHT22;7653;48.994;9.212;2023-05-07T01:29:56;12.20;82.00
15105;DHT22;7653;48.994;9.212;2023-05-07T01:32:43;12.30;81.10
15105;DHT22;7653;48.994;9.212;2023-05-07T01:35:11;12.20;81.20
15105;DHT22;7653;48.994;9.212;2023-05-07T01:37:39;12.30;80.50
15105;DHT22;7653;48.994;9.212;2023-05-07T01:40:05;12.10;78.60
15105;DHT22;7653;48.994;9.212;2023-05-07T01:42:32;12.00;80.80
15105;DHT22;7653;48.994;9.212;2023-05-07T01:44:58;12.00;80.70
15105;DHT22;7653;48.994;9.212;2023-05-07T01:47:25;12.10;80.80
15105;DHT22;7653;48.994;9.212;2023-05-07T01:49:51;12.10;80.80
15105;DHT22;7653;48.994;9.212;2023-05-07T01:52:17;12.00;80.70
15105;DHT22;7653;48.994;9.212;2023-05-07T01:54:42;11.80;82.40
15105;DHT22;7653;48.994;9.212;2023-05-07T01:57:08;11.80;82.60
15105;DHT22;7653;48.994;9.212;2023-05-07T01:59:34;11.70;83.70
15105;DHT22;7653;48.994;9.212;2023-05-07T02:01:59;11.80;84.90
15105;DHT22;7653;48.994;9.212;2023-05-07T02:04:26;11.80;85.30
15105;DHT22;7653;48.994;9.212;2023-05-07T02:06:51;11.80;84.90
15105;DHT22;7653;48.994;9.212;2023-05-07T02:09:18;11.80;85.30
15105;DHT22;7653;48.994;9.212;2023-05-07T02:11:44;11.80;85.10
15105;DHT22;7653;48.994;9.212;2023-05-07T02:14:10;11.70;85.10
15105;DHT22;7653;48.994;9.212;2023-05-07T02:16:36;11.70;84.10
15105;DHT22;7653;48.994;9.212;2023-05-07T02:19:02;11.60;85.80
15105;DHT22;7653;48.994;9.212;2023-05-07T02:21:27;11.60;88.80
15105;DHT22;7653;48.994;9.212;2023-05-07T02:23:53;11.60;88.30
15105;DHT22;7653;48.994;9.212;2023-05-07T02:26:19;11.50;87.60
15105;DHT22;7653;48.994;9.212;2023-05-07T02:28:45;11.60;88.10
15105;DHT22;7653;48.994;9.212;2023-05-07T02:31:10;11.70;86.80
15105;DHT22;7653;48.994;9.212;2023-05-07T02:33:36;11.70;85.10
15105;DHT22;7653;48.994;9.212;2023-05-07T02:36:09;11.80;85.80
15105;DHT22;7653;48.994;9.212;2023-05-07T02:38:34;11.90;85.80
15105;DHT22;7653;48.994;9.212;2023-05-07T02:41:00;11.90;83.70
15105;DHT22;7653;48.994;9.212;2023-05-07T02:43:26;12.10;85.20
15105;DHT22;7653;48.994;9.212;2023-05-07T02:46:05;12.10;83.50
15105;DHT22;7653;48.994;9.212;2023-05-07T02:48:31;12.10;82.30
15105;DHT22;7653;48.994;9.212;2023-05-07T02:50:58;12.10;81.00
15105;DHT22;7653;48.994;9.212;2023-05-07T02:53:24;12.00;80.80
15105;DHT22;7653;48.994;9.212;2023-05-07T02:55:52;11.90;80.70
15105;DHT22;7653;48.994;9.212;2023-05-07T02:58:18;11.90;82.30
15105;DHT22;7653;48.994;9.212;2023-05-07T03:00:44;11.90;81.30
15105;DHT22;7653;48.994;9.212;2023-05-07T03:03:09;12.10;81.00
15105;DHT22;7653;48.994;9.212;2023-05-07T03:05:36;12.10;80.80
15105;DHT22;7653;48.994;9.212;2023-05-07T03:08:02;12.10;80.50
15105;DHT22;7653;48.994;9.212;2023-05-07T03:10:29;12.10;79.70
15105;DHT22;7653;48.994;9.212;2023-05-07T03:12:55;11.80;79.30
15105;DHT22;7653;48.994;9.212;2023-05-07T03:15:21;11.50;80.30
15105;DHT22;7653;48.994;9.212;2023-05-07T03:17:47;11.40;82.80
15105;DHT22;7653;48.994;9.212;2023-05-07T03:20:13;11.30;84.30
15105;DHT22;7653;48.994;9.212;2023-05-07T03:22:39;11.20;86.80
15105;DHT22;7653;48.994;9.212;2023-05-07T03:25:06;11.30;87.20
15105;DHT22;7653;48.994;9.212;2023-05-07T03:27:32;11.20;87.20
15105;DHT22;7653;48.994;9.212;2023-05-07T03:29:58;11.30;87.50
15105;DHT22;7653;48.994;9.212;2023-05-07T03:32:23;11.30;87.10
15105;DHT22;7653;48.994;9.212;2023-05-07T03:34:49;11.20;86.80
15105;DHT22;7653;48.994;9.212;2023-05-07T03:37:15;11.10;86.90
15105;DHT22;7653;48.994;9.212;2023-05-07T03:39:40;11.10;88.80
15105;DHT22;7653;48.994;9.212;2023-05-07T03:42:06;11.10;89.00
15105;DHT22;7653;48.994;9.212;2023-05-07T03:44:31;11.20;89.10
15105;DHT22;7653;48.994;9.212;2023-05-07T03:46:57;11.20;89.10
15105;DHT22;7653;48.994;9.212;2023-05-07T03:49:23;11.30;89.20
15105;DHT22;7653;48.994;9.212;2023-05-07T03:51:48;11.20;87.70
15105;DHT22;7653;48.994;9.212;2023-05-07T03:54:14;11.20;87.60
15105;DHT22;7653;48.994;9.212;2023-05-07T03:56:40;11.10;86.70
15105;DHT22;7653;48.994;9.212;2023-05-07T03:59:05;11.00;87.50
15105;DHT22;7653;48.994;9.212;2023-05-07T04:01:31;11.00;88.90
15105;DHT22;7653;48.994;9.212;2023-05-07T04:03:57;10.90;89.00
15105;DHT22;7653;48.994;9.212;2023-05-07T04:06:22;10.90;88.80
15105;DHT22;7653;48.994;9.212;2023-05-07T04:08:48;10.80;89.60
15105;DHT22;7653;48.994;9.212;2023-05-07T04:11:14;10.70;90.10
15105;DHT22;7653;48.994;9.212;2023-05-07T04:13:39;10.70;91.10
15105;DHT22;7653;48.994;9.212;2023-05-07T04:16:05;10.80;90.50
15105;DHT22;7653;48.994;9.212;2023-05-07T04:18:31;10.90;90.10
15105;DHT22;7653;48.994;9.212;2023-05-07T04:20:57;11.00;90.20
15105;DHT22;7653;48.994;9.212;2023-05-07T04:23:23;11.10;89.00
15105;DHT22;7653;48.994;9.212;2023-05-07T04:25:48;11.20;90.00
15105;DHT22;7653;48.994;9.212;2023-05-07T04:28:14;11.30;89.20
15105;DHT22;7653;48.994;9.212;2023-05-07T04:30:39;11.40;87.90
15105;DHT22;7653;48.994;9.212;2023-05-07T04:33:06;11.60;86.20
15105;DHT22;7653;48.994;9.212;2023-05-07T04:35:32;11.50;82.80
15105;DHT22;7653;48.994;9.212;2023-05-07T04:38:01;11.50;82.50
15105;DHT22;7653;48.994;9.212;2023-05-07T04:40:27;11.40;83.40
15105;DHT22;7653;48.994;9.212;2023-05-07T04:42:52;11.30;85.30
15105;DHT22;7653;48.994;9.212;2023-05-07T04:45:18;11.40;87.70
15105;DHT22;7653;48.994;9.212;2023-05-07T04:47:44;11.20;87.90
15105;DHT22;7653;48.994;9.212;2023-05-07T04:50:10;11.30;89.20
15105;DHT22;7653;48.994;9.212;2023-05-07T04:52:36;11.40;87.80
15105;DHT22;7653;48.994;9.212;2023-05-07T04:55:02;11.30;89.20
15105;DHT22;7653;48.994;9.212;2023-05-07T04:57:28;11.30;90.40
15105;DHT22;7653;48.994;9.212;2023-05-07T04:59:54;11.50;90.80
15105;DHT22;7653;48.994;9.212;2023-05-07T05:02:19;11.80;90.80
15105;DHT22;7653;48.994;9.212;2023-05-07T05:04:45;12.00;89.80
15105;DHT22;7653;48.994;9.212;2023-05-07T05:07:11;12.20;87.80
15105;DHT22;7653;48.994;9.212;2023-05-07T05:09:36;12.30;87.10
15105;DHT22;7653;48.994;9.212;2023-05-07T05:12:02;12.40;85.70
15105;DHT22;7653;48.994;9.212;2023-05-07T05:14:28;12.60;85.30
15105;DHT22;7653;48.994;9.212;2023-05-07T05:16:53;12.70;86.50
15105;DHT22;7653;48.994;9.212;2023-05-07T05:19:19;12.70;87.00
15105;DHT22;7653;48.994;9.212;2023-05-07T05:21:45;12.70;87.50
15105;DHT22;7653;48.994;9.212;2023-05-07T05:24:10;12.60;88.20
15105;DHT22;7653;48.994;9.212;2023-05-07T05:26:36;12.70;88.40
15105;DHT22;7653;48.994;9.212;2023-05-07T05:29:01;12.70;88.40
15105;DHT22;7653;48.994;9.212;2023-05-07T05:31:27;12.80;90.10
15105;DHT22;7653;48.994;9.212;2023-05-07T05:33:53;12.80;89.00
15105;DHT22;7653;48.994;9.212;2023-05-07T05:36:18;12.80;90.10
15105;DHT22;7653;48.994;9.212;2023-05-07T05:38:44;12.80;90.20
15105;DHT22;7653;48.994;9.212;2023-05-07T05:41:10;12.90;90.30
15105;DHT22;7653;48.994;9.212;2023-05-07T05:43:36;13.00;90.30
15105;DHT22;7653;48.994;9.212;2023-05-07T05:46:02;13.10;89.60
15105;DHT22;7653;48.994;9.212;2023-05-07T05:48:29;13.00;89.50
15105;DHT22;7653;48.994;9.212;2023-05-07T05:50:55;12.90;90.30
15105;DHT22;7653;48.994;9.212;2023-05-07T05:53:21;13.00;90.30
15105;DHT22;7653;48.994;9.212;2023-05-07T05:55:47;13.00;90.30
15105;DHT22;7653;48.994;9.212;2023-05-07T05:58:12;13.20;90.40
15105;DHT22;7653;48.994;9.212;2023-05-07T06:00:38;13.20;90.40
15105;DHT22;7653;48.994;9.212;2023-05-07T06:03:04;13.30;87.10
15105;DHT22;7653;48.994;9.212;2023-05-07T06:05:29;13.20;90.30
15105;DHT22;7653;48.994;9.212;2023-05-07T06:07:56;13.20;90.40
15105;DHT22;7653;48.994;9.212;2023-05-07T06:10:21;13.30;89.60
15105;DHT22;7653;48.994;9.212;2023-05-07T06:12:47;13.30;90.10
15105;DHT22;7653;48.994;9.212;2023-05-07T06:15:12;13.30;89.40
15105;DHT22;7653;48.994;9.212;2023-05-07T06:17:38;13.40;88.70
15105;DHT22;7653;48.994;9.212;2023-05-07T06:20:04;13.50;85.10
15105;DHT22;7653;48.994;9.212;2023-05-07T06:22:30;13.30;87.50
15105;DHT22;7653;48.994;9.212;2023-05-07T06:24:56;13.90;84.60
15105;DHT22;7653;48.994;9.212;2023-05-07T06:27:21;14.20;78.50
15105;DHT22;7653;48.994;9.212;2023-05-07T06:29:48;14.10;75.50
15105;DHT22;7653;48.994;9.212;2023-05-07T06:32:14;13.80;82.40
15105;DHT22;7653;48.994;9.212;2023-05-07T06:34:40;14.30;81.60
15105;DHT22;7653;48.994;9.212;2023-05-07T06:37:06;14.40;77.30
15105;DHT22;7653;48.994;9.212;2023-05-07T06:39:32;14.60;76.10
15105;DHT22;7653;48.994;9.212;2023-05-07T06:41:59;14.90;71.50
15105;DHT22;7653;48.994;9.212;2023-05-07T06:44:25;15.10;70.40
15105;DHT22;7653;48.994;9.212;2023-05-07T06:46:50;15.20;71.50
15105;DHT22;7653;48.994;9.212;2023-05-07T06:49:16;15.40;67.70
15105;DHT22;7653;48.994;9.212;2023-05-07T06:51:42;15.30;65.20
15105;DHT22;7653;48.994;9.212;2023-05-07T06:54:07;15.30;66.10
15105;DHT22;7653;48.994;9.212;2023-05-07T06:56:33;15.50;65.90
15105;DHT22;7653;48.994;9.212;2023-05-07T06:59:00;15.70;63.90
15105;DHT22;7653;48.994;9.212;2023-05-07T07:01:26;15.90;64.40
15105;DHT22;7653;48.994;9.212;2023-05-07T07:03:52;16.20;58.90
15105;DHT22;7653;48.994;9.212;2023-05-07T07:06:17;16.20;57.80
15105;DHT22;7653;48.994;9.212;2023-05-07T07:08:43;16.60;55.70
15105;DHT22;7653;48.994;9.212;2023-05-07T07:11:10;16.80;54.40
15105;DHT22;7653;48.994;9.212;2023-05-07T07:13:35;16.80;54.20
15105;DHT22;7653;48.994;9.212;2023-05-07T07:16:01;16.80;55.60
15105;DHT22;7653;48.994;9.212;2023-05-07T07:18:27;16.80;56.50
15105;DHT22;7653;48.994;9.212;2023-05-07T07:20:52;17.00;54.30
15105;DHT22;7653;48.994;9.212;2023-05-07T07:23:18;17.00;53.90
15105;DHT22;7653;48.994;9.212;2023-05-07T07:25:44;16.80;54.40
15105;DHT22;7653;48.994;9.212;2023-05-07T07:28:10;16.80;56.50
15105;DHT22;7653;48.994;9.212;2023-05-07T07:30:36;16.70;57.10
15105;DHT22;7653;48.994;9.212;2023-05-07T07:33:02;16.90;56.60
15105;DHT22;7653;48.994;9.212;2023-05-07T07:35:34;17.00;54.20
15105;DHT22;7653;48.994;9.212;2023-05-07T07:38:00;17.40;52.90
15105;DHT22;7653;48.994;9.212;2023-05-07T07:40:27;17.90;50.40
15105;DHT22;7653;48.994;9.212;2023-05-07T07:42:53;18.40;47.00
15105;DHT22;7653;48.994;9.212;2023-05-07T07:45:18;18.50;44.30
15105;DHT22;7653;48.994;9.212;2023-05-07T07:47:44;18.60;42.10
15105;DHT22;7653;48.994;9.212;2023-05-07T07:50:10;18.90;43.50
15105;DHT22;7653;48.994;9.212;2023-05-07T07:52:36;18.90;43.70
15105;DHT22;7653;48.994;9.212;2023-05-07T07:55:02;18.80;38.60
15105;DHT22;7653;48.994;9.212;2023-05-07T07:57:28;19.00;38.00
15105;DHT22;7653;48.994;9.212;2023-05-07T07:59:54;19.00;34.50
15105;DHT22;7653;48.994;9.212;2023-05-07T08:02:20;18.90;38.50
15105;DHT22;7653;48.994;9.212;2023-05-07T08:04:45;19.00;38.40
15105;DHT22;7653;48.994;9.212;2023-05-07T08:07:11;19.20;37.50
15105;DHT22;7653;48.994;9.212;2023-05-07T08:09:38;19.50;36.30
15105;DHT22;7653;48.994;9.212;2023-05-07T08:12:04;19.50;33.90
15105;DHT22;7653;48.994;9.212;2023-05-07T08:14:30;19.90;34.00
15105;DHT22;7653;48.994;9.212;2023-05-07T08:16:56;20.10;31.60
15105;DHT22;7653;48.994;9.212;2023-05-07T08:19:22;20.20;32.20
15105;DHT22;7653;48.994;9.212;2023-05-07T08:21:48;20.30;30.20
15105;DHT22;7653;48.994;9.212;2023-05-07T08:24:14;20.50;29.90
15105;DHT22;7653;48.994;9.212;2023-05-07T08:26:40;20.60;29.50
15105;DHT22;7653;48.994;9.212;2023-05-07T08:29:07;20.70;29.30
15105;DHT22;7653;48.994;9.212;2023-05-07T08:31:33;20.80;29.90
15105;DHT22;7653;48.994;9.212;2023-05-07T08:33:59;20.90;30.00
15105;DHT22;7653;48.994;9.212;2023-05-07T08:36:25;20.60;29.90
15105;DHT22;7653;48.994;9.212;2023-05-07T08:38:51;20.80;30.00
15105;DHT22;7653;48.994;9.212;2023-05-07T08:41:17;20.80;29.70
15105;DHT22;7653;48.994;9.212;2023-05-07T08:43:47;20.80;29.00
15105;DHT22;7653;48.994;9.212;2023-05-07T08:46:17;20.70;29.40
15105;DHT22;7653;48.994;9.212;2023-05-07T08:48:44;20.90;31.50
15105;DHT22;7653;48.994;9.212;2023-05-07T08:51:12;21.10;30.10
15105;DHT22;7653;48.994;9.212;2023-05-07T08:53:40;21.10;28.00
15105;DHT22;7653;48.994;9.212;2023-05-07T08:56:10;21.10;30.10
15105;DHT22;7653;48.994;9.212;2023-05-07T08:58:36;21.20;28.80
15105;DHT22;7653;48.994;9.212;2023-05-07T09:01:15;21.20;27.70
15105;DHT22;7653;48.994;9.212;2023-05-07T09:03:44;21.30;29.50
15105;DHT22;7653;48.994;9.212;2023-05-07T09:06:10;21.30;30.40
15105;DHT22;7653;48.994;9.212;2023-05-07T09:08:35;21.50;27.30
15105;DHT22;7653;48.994;9.212;2023-05-07T09:11:02;21.60;30.60
15105;DHT22;7653;48.994;9.212;2023-05-07T09:13:28;21.60;27.00
15105;DHT22;7653;48.994;9.212;2023-05-07T09:15:54;21.60;27.80
15105;DHT22;7653;48.994;9.212;2023-05-07T09:18:20;21.70;27.10
15105;DHT22;7653;48.994;9.212;2023-05-07T09:20:45;21.60;28.10
15105;DHT22;7653;48.994;9.212;2023-05-07T09:23:11;21.50;30.60
15105;DHT22;7653;48.994;9.212;2023-05-07T09:25:37;21.60;29.10
15105;DHT22;7653;48.994;9.212;2023-05-07T09:28:04;22.00;28.80
15105;DHT22;7653;48.994;9.212;2023-05-07T09:30:32;22.10;24.50
15105;DHT22;7653;48.994;9.212;2023-05-07T09:32:59;22.20;24.40
15105;DHT22;7653;48.994;9.212;2023-05-07T09:35:25;22.30;26.10
15105;DHT22;7653;48.994;9.212;2023-05-07T09:37:59;22.50;25.90
15105;DHT22;7653;48.994;9.212;2023-05-07T09:40:29;22.60;24.60
15105;DHT22;7653;48.994;9.212;2023-05-07T09:42:55;22.50;24.00
15105;DHT22;7653;48.994;9.212;2023-05-07T09:45:28;22.70;24.20
15105;DHT22;7653;48.994;9.212;2023-05-07T09:47:58;22.90;23.70
15105;DHT22;7653;48.994;9.212;2023-05-07T09:50:28;22.80;24.20
15105;DHT22;7653;48.994;9.212;2023-05-07T09:52:55;22.90;24.10
15105;DHT22;7653;48.994;9.212;2023-05-07T09:55:22;23.00;23.30
15105;DHT22;7653;48.994;9.212;2023-05-07T09:57:52;22.90;23.20
15105;DHT22;7653;48.994;9.212;2023-05-07T10:00:22;23.10;24.20
15105;DHT22;7653;48.994;9.212;2023-05-07T10:02:49;23.20;23.40
15105;DHT22;7653;48.994;9.212;2023-05-07T10:05:17;23.10;23.40
15105;DHT22;7653;48.994;9.212;2023-05-07T10:07:44;23.20;22.70
15105;DHT22;7653;48.994;9.212;2023-05-07T10:10:10;23.20;23.40
15105;DHT22;7653;48.994;9.212;2023-05-07T10:12:36;23.30;21.60
15105;DHT22;7653;48.994;9.212;2023-05-07T10:15:09;23.50;20.70
15105;DHT22;7653;48.994;9.212;2023-05-07T10:17:36;23.30;22.00
15105;DHT22;7653;48.994;9.212;2023-05-07T10:20:03;23.70;21.20
15105;DHT22;7653;48.994;9.212;2023-05-07T10:22:31;23.80;19.90
15105;DHT22;7653;48.994;9.212;2023-05-07T10:24:59;23.70;21.30
15105;DHT22;7653;48.994;9.212;2023-05-07T10:27:29;24.00;21.50
15105;DHT22;7653;48.994;9.212;2023-05-07T10:30:19;24.10;19.80
15105;DHT22;7653;48.994;9.212;2023-05-07T10:32:50;23.90;18.40
15105;DHT22;7653;48.994;9.212;2023-05-07T10:35:23;23.90;20.00
15105;DHT22;7653;48.994;9.212;2023-05-07T10:37:50;23.90;19.70
15105;DHT22;7653;48.994;9.212;2023-05-07T10:40:16;24.40;18.10
15105;DHT22;7653;48.994;9.212;2023-05-07T10:42:59;24.50;18.70
15105;DHT22;7653;48.994;9.212;2023-05-07T10:45:26;24.50;19.60
15105;DHT22;7653;48.994;9.212;2023-05-07T10:50:38;24.50;19.40
15105;DHT22;7653;48.994;9.212;2023-05-07T10:53:25;24.50;19.00
15105;DHT22;7653;48.994;9.212;2023-05-07T10:58:44;24.90;17.70
15105;DHT22;7653;48.994;9.212;2023-05-07T11:01:10;24.70;17.80
15105;DHT22;7653;48.994;9.212;2023-05-07T11:04:13;25.00;17.30
15105;DHT22;7653;48.994;9.212;2023-05-07T11:06:40;25.30;17.10
15105;DHT22;7653;48.994;9.212;2023-05-07T11:09:05;25.60;16.40
15105;DHT22;7653;48.994;9.212;2023-05-07T11:11:46;26.00;16.30
15105;DHT22;7653;48.994;9.212;2023-05-07T11:18:13;25.80;14.20
15105;DHT22;7653;48.994;9.212;2023-05-07T11:21:56;26.10;15.20
15105;DHT22;7653;48.994;9.212;2023-05-07T11:24:09;25.80;14.80
15105;DHT22;7653;48.994;9.212;2023-05-07T11:26:43;25.50;16.20
15105;DHT22;7653;48.994;9.212;2023-05-07T11:31:42;25.50;14.40
15105;DHT22;7653;48.994;9.212;2023-05-07T11:34:08;25.60;13.70
15105;DHT22;7653;48.994;9.212;2023-05-07T11:36:34;25.40;14.60
15105;DHT22;7653;48.994;9.212;2023-05-07T11:38:59;25.60;13.10
15105;DHT22;7653;48.994;9.212;2023-05-07T11:41:35;25.70;14.60
15105;DHT22;7653;48.994;9.212;2023-05-07T11:44:02;25.40;14.30
15105;DHT22;7653;48.994;9.212;2023-05-07T11:46:28;25.10;15.30
15105;DHT22;7653;48.994;9.212;2023-05-07T11:48:55;25.00;13.70
15105;DHT22;7653;48.994;9.212;2023-05-07T11:51:23;24.80;13.80
15105;DHT22;7653;48.994;9.212;2023-05-07T11:53:49;24.80;15.00
15105;DHT22;7653;48.994;9.212;2023-05-07T11:56:17;25.00;13.60
15105;DHT22;7653;48.994;9.212;2023-05-07T11:58:44;25.30;14.00
15105;DHT22;7653;48.994;9.212;2023-05-07T12:01:11;25.60;13.50
15105;DHT22;7653;48.994;9.212;2023-05-07T12:03:40;25.00;13.40
15105;DHT22;7653;48.994;9.212;2023-05-07T12:06:08;25.60;13.70
15105;DHT22;7653;48.994;9.212;2023-05-07T12:08:37;25.50;13.10
15105;DHT22;7653;48.994;9.212;2023-05-07T12:11:03;25.90;13.10
15105;DHT22;7653;48.994;9.212;2023-05-07T12:13:32;26.20;12.40
15105;DHT22;7653;48.994;9.212;2023-05-07T12:15:57;25.50;11.40
15105;DHT22;7653;48.994;9.212;2023-05-07T12:18:23;25.70;12.20
15105;DHT22;7653;48.994;9.212;2023-05-07T12:20:50;25.50;12.50
15105;DHT22;7653;48.994;9.212;2023-05-07T12:23:16;25.70;12.10
15105;DHT22;7653;48.994;9.212;2023-05-07T12:25:43;26.40;12.40
15105;DHT22;7653;48.994;9.212;2023-05-07T12:28:13;26.80;12.70
15105;DHT22;7653;48.994;9.212;2023-05-07T12:30:42;26.50;12.50
15105;DHT22;7653;48.994;9.212;2023-05-07T12:33:08;26.20;12.40
15105;DHT22;7653;48.994;9.212;2023-05-07T12:35:41;26.50;10.40
15105;DHT22;7653;48.994;9.212;2023-05-07T12:38:11;26.10;12.30
15105;DHT22;7653;48.994;9.212;2023-05-07T12:43:03;26.50;9.90
15105;DHT22;7653;48.994;9.212;2023-05-07T12:45:28;26.60;12.60
15105;DHT22;7653;48.994;9.212;2023-05-07T12:47:54;27.00;12.80
15105;DHT22;7653;48.994;9.212;2023-05-07T12:50:20;26.90;11.00
15105;DHT22;7653;48.994;9.212;2023-05-07T12:52:48;26.90;10.20
15105;DHT22;7653;48.994;9.212;2023-05-07T12:55:15;26.70;12.60
15105;DHT22;7653;48.994;9.212;2023-05-07T12:57:48;26.70;11.50
15105;DHT22;7653;48.994;9.212;2023-05-07T13:00:14;26.30;12.30
15105;DHT22;7653;48.994;9.212;2023-05-07T13:02:42;26.10;12.30
15105;DHT22;7653;48.994;9.212;2023-05-07T13:05:09;25.60;12.10
15105;DHT22;7653;48.994;9.212;2023-05-07T13:07:35;25.70;13.10
15105;DHT22;7653;48.994;9.212;2023-05-07T13:10:02;25.70;13.20
15105;DHT22;7653;48.994;9.212;2023-05-07T13:12:28;25.40;12.00
15105;DHT22;7653;48.994;9.212;2023-05-07T13:14:54;25.20;13.70
15105;DHT22;7653;48.994;9.212;2023-05-07T13:17:19;25.00;13.90
15105;DHT22;7653;48.994;9.212;2023-05-07T13:19:45;24.80;13.80
15105;DHT22;7653;48.994;9.212;2023-05-07T13:22:10;24.60;15.30
15105;DHT22;7653;48.994;9.212;2023-05-07T13:24:36;24.60;15.80
15105;DHT22;7653;48.994;9.212;2023-05-07T13:27:02;24.30;15.60
15105;DHT22;7653;48.994;9.212;2023-05-07T13:29:28;24.20;15.60
15105;DHT22;7653;48.994;9.212;2023-05-07T13:31:58;24.30;15.60
15105;DHT22;7653;48.994;9.212;2023-05-07T13:34:24;24.40;15.70
15105;DHT22;7653;48.994;9.212;2023-05-07T13:36:50;23.90;16.80
15105;DHT22;7653;48.994;9.212;2023-05-07T13:39:16;23.70;18.60
15105;DHT22;7653;48.994;9.212;2023-05-07T13:41:41;23.20;20.20
15105;DHT22;7653;48.994;9.212;2023-05-07T13:44:07;22.90;22.00
15105;DHT22;7653;48.994;9.212;2023-05-07T13:46:33;22.70;23.10
15105;DHT22;7653;48.994;9.212;2023-05-07T13:48:58;22.60;24.40
15105;DHT22;7653;48.994;9.212;2023-05-07T13:51:24;22.10;24.40
15105;DHT22;7653;48.994;9.212;2023-05-07T13:53:51;21.90;24.20
15105;DHT22;7653;48.994;9.212;2023-05-07T13:56:17;21.30;23.90
15105;DHT22;7653;48.994;9.212;2023-05-07T13:58:43;21.00;22.70
15105;DHT22;7653;48.994;9.212;2023-05-07T14:01:09;20.60;23.70
15105;DHT22;7653;48.994;9.212;2023-05-07T14:03:34;20.50;24.70
15105;DHT22;7653;48.994;9.212;2023-05-07T14:06:03;20.50;24.60
15105;DHT22;7653;48.994;9.212;2023-05-07T14:08:29;20.50;24.90
15105;DHT22;7653;48.994;9.212;2023-05-07T14:10:55;20.60;24.70
15105;DHT22;7653;48.994;9.212;2023-05-07T14:13:20;20.50;24.90
15105;DHT22;7653;48.994;9.212;2023-05-07T14:15:46;20.60;22.80
15105;DHT22;7653;48.994;9.212;2023-05-07T14:18:13;20.50;24.00
15105;DHT22;7653;48.994;9.212;2023-05-07T14:20:39;20.60;22.90
15105;DHT22;7653;48.994;9.212;2023-05-07T14:23:05;20.60;22.30
15105;DHT22;7653;48.994;9.212;2023-05-07T14:25:30;20.40;22.70
15105;DHT22;7653;48.994;9.212;2023-05-07T14:27:56;20.00;25.40
15105;DHT22;7653;48.994;9.212;2023-05-07T14:30:22;19.70;26.20
15105;DHT22;7653;48.994;9.212;2023-05-07T14:32:49;19.40;27.40
15105;DHT22;7653;48.994;9.212;2023-05-07T14:35:15;19.30;28.60
15105;DHT22;7653;48.994;9.212;2023-05-07T14:37:41;19.30;29.00
15105;DHT22;7653;48.994;9.212;2023-05-07T14:40:07;19.10;33.60
15105;DHT22;7653;48.994;9.212;2023-05-07T14:42:33;18.90;41.40
15105;DHT22;7653;48.994;9.212;2023-05-07T14:44:58;18.70;45.90
15105;DHT22;7653;48.994;9.212;2023-05-07T14:47:24;18.60;44.30
15105;DHT22;7653;48.994;9.212;2023-05-07T14:49:50;18.60;39.90
15105;DHT22;7653;48.994;9.212;2023-05-07T14:52:16;18.60;41.50
15105;DHT22;7653;48.994;9.212;2023-05-07T14:54:42;18.60;41.30
15105;DHT22;7653;48.994;9.212;2023-05-07T14:57:08;18.70;44.50
15105;DHT22;7653;48.994;9.212;2023-05-07T14:59:35;18.60;46.30
15105;DHT22;7653;48.994;9.212;2023-05-07T15:02:01;18.70;46.50
15105;DHT22;7653;48.994;9.212;2023-05-07T15:04:27;18.60;50.50
15105;DHT22;7653;48.994;9.212;2023-05-07T15:06:52;18.70;51.70
15105;DHT22;7653;48.994;9.212;2023-05-07T15:09:21;18.70;52.50
15105;DHT22;7653;48.994;9.212;2023-05-07T15:11:47;18.80;46.00
15105;DHT22;7653;48.994;9.212;2023-05-07T15:14:12;18.80;45.00
15105;DHT22;7653;48.994;9.212;2023-05-07T15:16:38;18.40;51.80
15105;DHT22;7653;48.994;9.212;2023-05-07T15:19:04;18.30;52.10
15105;DHT22;7653;48.994;9.212;2023-05-07T15:21:29;18.60;56.20
15105;DHT22;7653;48.994;9.212;2023-05-07T15:23:58;18.50;55.20
15105;DHT22;7653;48.994;9.212;2023-05-07T15:26:23;18.70;60.10
15105;DHT22;7653;48.994;9.212;2023-05-07T15:28:49;18.70;54.30
15105;DHT22;7653;48.994;9.212;2023-05-07T15:31:15;18.40;59.30
15105;DHT22;7653;48.994;9.212;2023-05-07T15:33:42;18.30;57.90
15105;DHT22;7653;48.994;9.212;2023-05-07T15:36:08;18.20;57.80
15105;DHT22;7653;48.994;9.212;2023-05-07T15:38:34;18.30;51.90
15105;DHT22;7653;48.994;9.212;2023-05-07T15:40:59;18.20;58.20
15105;DHT22;7653;48.994;9.212;2023-05-07T15:43:25;18.10;66.60
15105;DHT22;7653;48.994;9.212;2023-05-07T15:45:51;18.00;67.30
15105;DHT22;7653;48.994;9.212;2023-05-07T15:48:16;17.60;69.00
15105;DHT22;7653;48.994;9.212;2023-05-07T15:50:42;17.50;74.50
15105;DHT22;7653;48.994;9.212;2023-05-07T15:53:08;17.30;76.40
15105;DHT22;7653;48.994;9.212;2023-05-07T15:55:34;17.50;76.60
15105;DHT22;7653;48.994;9.212;2023-05-07T15:58:00;17.40;67.90